Terminal Aerodrome Forecast
Issued by NWS Wilmington, OH

Current Version | Previous Version | Graphics & Text | Print | Product List | Glossary Off
Versions: 1 2 3 4 5 6 7 8 9 10 11 12 13 14 15 16

102
FTUS41 KILN 240536
TAFDAY
TAF
KDAY 240536Z 2406/2506 18009KT P6SM VCSH SCT045 BKN120
      WS020/20040KT
     FM240800 19011G21KT P6SM SCT040 BKN110 WS020/21045KT
     FM241400 21014G23KT P6SM SCT030 OVC080
     FM241600 21016G31KT P6SM BKN028
     FM242100 21015G22KT P6SM BKN060
     FM250200 20009KT P6SM OVC080=

USA.gov is the U.S. government's official web portal to all federal, state and local government web resources and services.